Terminal Aerodrome Forecast
Issued by NWS Corpus Christi, TX

Home | Current Version | Previous Version | Text Only | Print | Product List | Glossary On
Versions: 1 2 3 4 5 6 7 8 9 10 11 12 13 14 15 16
000
FTUS44 KCRP 051132
TAFCRP
TAF
KCRP 051132Z 0512/0612 14010KT P6SM SCT015 BKN025
      TEMPO 0512/0515 BKN015 OVC025
     FM051500 15015G20KT P6SM VCSH BKN025 OVC040
     FM051700 13018G29KT P6SM BKN050
     FM060100 14016G24KT P6SM BKN025
      TEMPO 0606/0610 SCT025 BKN250
     FM061000 13013KT P6SM BKN020=

USA.gov is the U.S. government's official web portal to all federal, state and local government web resources and services.